AFR600 TFFF-SOCA
Flight info
| Callsign | AFR600 |
|---|---|
| Flight time | 1h 54m |
| Altitude | 37000 |
| Route | BORUS2R BORUS A555 BGI UA555 TRAPP UM786 KALEP |
| Aircraft | A320/M-SDE2E3FGIJ1RWY/HB1 |
Departure
| Time | 2026-05-04 12:57 |
|---|---|
| Airport | Martinique Aimé Césaire International Airport (TFFF) |
Arrival
| Time | 2026-05-04 14:52 |
|---|---|
| Airport | Cayenne – Félix Eboué Airport (SOCA) |
| Time | Latitude | Longitude | Altitude | Speed | Heading |
|---|---|---|---|---|---|
| 2026-05-04 12:34 | 14.59487 | -61.00097 | 19 ft | 0 kts | 33° |
| 2026-05-04 12:48 | 14.59473 | -61.00106 | 18 ft | 3 kts | 34° |
| 2026-05-04 12:48 | 14.59456 | -61.00119 | 18 ft | 3 kts | 34° |
| 2026-05-04 12:49 | 14.59440 | -61.00131 | 18 ft | 3 kts | 34° |
| 2026-05-04 12:49 | 14.59426 | -61.00141 | 20 ft | 3 kts | 50° |
| 2026-05-04 12:49 | 14.59417 | -61.00157 | 18 ft | 3 kts | 88° |
| 2026-05-04 12:49 | 14.59420 | -61.00176 | 18 ft | 3 kts | 124° |
| 2026-05-04 12:50 | 14.59421 | -61.00179 | 18 ft | 0 kts | 126° |
| 2026-05-04 12:51 | 14.59395 | -61.00137 | 18 ft | 9 kts | 113° |
| 2026-05-04 12:52 | 14.59373 | -61.00084 | 20 ft | 7 kts | 114° |
| 2026-05-04 12:52 | 14.59341 | -61.00050 | 19 ft | 9 kts | 153° |
| 2026-05-04 12:52 | 14.59273 | -61.00035 | 20 ft | 10 kts | 173° |
| 2026-05-04 12:52 | 14.59207 | -61.00026 | 19 ft | 10 kts | 172° |
| 2026-05-04 12:53 | 14.59147 | -61.00083 | 17 ft | 17 kts | 258° |
| 2026-05-04 12:53 | 14.59122 | -61.00207 | 16 ft | 18 kts | 259° |
| 2026-05-04 12:53 | 14.59114 | -61.00331 | 16 ft | 17 kts | 268° |
| 2026-05-04 12:53 | 14.59095 | -61.00452 | 15 ft | 17 kts | 258° |
| 2026-05-04 12:54 | 14.59068 | -61.00564 | 15 ft | 15 kts | 256° |
| 2026-05-04 12:54 | 14.59048 | -61.00659 | 20 ft | 11 kts | 257° |
| 2026-05-04 12:54 | 14.59034 | -61.00723 | 20 ft | 7 kts | 257° |
| 2026-05-04 12:54 | 14.59025 | -61.00762 | 22 ft | 4 kts | 258° |
| 2026-05-04 12:55 | 14.59014 | -61.00819 | 22 ft | 16 kts | 258° |
| 2026-05-04 12:55 | 14.58980 | -61.01005 | 22 ft | 31 kts | 260° |
| 2026-05-04 12:55 | 14.58949 | -61.01223 | 25 ft | 31 kts | 262° |
| 2026-05-04 12:55 | 14.58915 | -61.01449 | 22 ft | 33 kts | 260° |
| 2026-05-04 12:56 | 14.58877 | -61.01678 | 18 ft | 28 kts | 259° |
| 2026-05-04 12:56 | 14.58902 | -61.01794 | 17 ft | 12 kts | 286° |
| 2026-05-04 12:56 | 14.58853 | -61.01796 | 16 ft | 11 kts | 100° |
| 2026-05-04 12:56 | 14.58875 | -61.01642 | 21 ft | 48 kts | 81° |
| 2026-05-04 12:57 | 14.58977 | -61.01072 | 26 ft | 113 kts | 80° |
| 2026-05-04 12:57 | 14.59146 | -61.00079 | 25 ft | 164 kts | 80° |
| 2026-05-04 12:57 | 14.59335 | -60.98932 | 643 ft | 160 kts | 79° |
| 2026-05-04 12:57 | 14.59538 | -60.97807 | 1335 ft | 161 kts | 79° |
| 2026-05-04 12:58 | 14.59745 | -60.96671 | 2000 ft | 161 kts | 80° |
| 2026-05-04 12:58 | 14.59940 | -60.95535 | 2602 ft | 160 kts | 81° |
| 2026-05-04 12:58 | 14.60132 | -60.94398 | 3186 ft | 160 kts | 81° |
| 2026-05-04 12:58 | 14.60327 | -60.93222 | 3543 ft | 178 kts | 81° |
| 2026-05-04 12:59 | 14.60352 | -60.91883 | 3784 ft | 200 kts | 106° |
| 2026-05-04 12:59 | 14.59524 | -60.90635 | 4017 ft | 227 kts | 139° |
| 2026-05-04 12:59 | 14.58215 | -60.89559 | 4369 ft | 252 kts | 140° |
| 2026-05-04 12:59 | 14.56783 | -60.88420 | 4997 ft | 265 kts | 141° |
| 2026-05-04 13:00 | 14.55304 | -60.87250 | 5848 ft | 270 kts | 141° |
| 2026-05-04 13:00 | 14.53809 | -60.86063 | 6719 ft | 273 kts | 141° |
| 2026-05-04 13:00 | 14.52315 | -60.84875 | 7536 ft | 277 kts | 141° |
| 2026-05-04 13:00 | 14.50778 | -60.83648 | 8339 ft | 282 kts | 141° |
| 2026-05-04 13:01 | 14.49217 | -60.82398 | 9094 ft | 286 kts | 141° |
| 2026-05-04 13:01 | 14.47636 | -60.81127 | 9824 ft | 290 kts | 141° |
| 2026-05-04 13:01 | 14.46031 | -60.79838 | 10484 ft | 297 kts | 141° |
| 2026-05-04 13:01 | 14.44339 | -60.78475 | 10668 ft | 320 kts | 141° |
| 2026-05-04 13:02 | 14.42525 | -60.77019 | 11006 ft | 336 kts | 141° |
| 2026-05-04 13:02 | 14.40682 | -60.75547 | 11615 ft | 341 kts | 141° |
| 2026-05-04 13:02 | 14.38799 | -60.74042 | 12280 ft | 345 kts | 141° |
| 2026-05-04 13:02 | 14.36886 | -60.72509 | 12926 ft | 349 kts | 141° |
| 2026-05-04 13:03 | 14.34953 | -60.70957 | 13566 ft | 353 kts | 141° |
| 2026-05-04 13:03 | 14.33017 | -60.69405 | 14189 ft | 357 kts | 141° |
| 2026-05-04 13:03 | 14.31049 | -60.67826 | 14800 ft | 360 kts | 141° |
| 2026-05-04 13:03 | 14.29060 | -60.66228 | 15382 ft | 364 kts | 141° |
| 2026-05-04 13:04 | 14.27049 | -60.64612 | 15956 ft | 368 kts | 141° |
| 2026-05-04 13:04 | 14.25021 | -60.62983 | 16517 ft | 372 kts | 141° |
| 2026-05-04 13:04 | 14.22966 | -60.61335 | 17068 ft | 375 kts | 141° |
| 2026-05-04 13:04 | 14.20918 | -60.59693 | 17599 ft | 379 kts | 141° |
| 2026-05-04 13:05 | 14.18829 | -60.58019 | 18122 ft | 382 kts | 141° |
| 2026-05-04 13:05 | 14.16717 | -60.56328 | 18628 ft | 385 kts | 141° |
| 2026-05-04 13:05 | 14.14583 | -60.54619 | 19152 ft | 389 kts | 141° |
| 2026-05-04 13:05 | 14.12681 | -60.53094 | 19619 ft | 391 kts | 141° |
| 2026-05-04 13:06 | 14.10545 | -60.51381 | 20119 ft | 395 kts | 141° |
| 2026-05-04 13:06 | 14.08370 | -60.49644 | 20627 ft | 398 kts | 142° |
| 2026-05-04 13:06 | 14.06171 | -60.47891 | 21123 ft | 401 kts | 142° |
| 2026-05-04 13:06 | 14.04016 | -60.46049 | 21615 ft | 403 kts | 135° |
| 2026-05-04 13:07 | 14.02009 | -60.44005 | 22092 ft | 406 kts | 135° |
| 2026-05-04 13:07 | 13.99990 | -60.41944 | 22570 ft | 409 kts | 135° |
| 2026-05-04 13:07 | 13.97960 | -60.39876 | 23040 ft | 412 kts | 135° |
| 2026-05-04 13:07 | 13.95914 | -60.37790 | 23495 ft | 415 kts | 135° |
| 2026-05-04 13:08 | 13.93896 | -60.35732 | 23919 ft | 418 kts | 135° |
| 2026-05-04 13:08 | 13.91813 | -60.33611 | 24347 ft | 420 kts | 135° |
| 2026-05-04 13:08 | 13.89721 | -60.31487 | 24748 ft | 423 kts | 135° |
| 2026-05-04 13:08 | 13.87615 | -60.29349 | 25033 ft | 426 kts | 135° |
| 2026-05-04 13:09 | 13.85493 | -60.27200 | 25096 ft | 426 kts | 135° |
| 2026-05-04 13:09 | 13.83379 | -60.25058 | 25100 ft | 426 kts | 135° |
| 2026-05-04 13:09 | 13.81288 | -60.22936 | 25100 ft | 426 kts | 135° |
| 2026-05-04 13:09 | 13.79172 | -60.20788 | 25100 ft | 426 kts | 135° |
| 2026-05-04 13:10 | 13.77059 | -60.18643 | 25097 ft | 426 kts | 135° |
| 2026-05-04 13:10 | 13.74953 | -60.16504 | 25094 ft | 426 kts | 135° |
| 2026-05-04 13:10 | 13.72861 | -60.14380 | 25092 ft | 426 kts | 135° |
| 2026-05-04 13:10 | 13.70750 | -60.12239 | 25100 ft | 426 kts | 135° |
| 2026-05-04 13:11 | 13.68633 | -60.10090 | 25101 ft | 426 kts | 135° |
| 2026-05-04 13:11 | 13.66517 | -60.07944 | 25091 ft | 426 kts | 135° |
| 2026-05-04 13:11 | 13.64396 | -60.05801 | 25092 ft | 426 kts | 135° |
| 2026-05-04 13:11 | 13.62309 | -60.03694 | 25090 ft | 426 kts | 135° |
| 2026-05-04 13:12 | 13.60196 | -60.01560 | 25091 ft | 425 kts | 135° |
| 2026-05-04 13:12 | 13.58084 | -59.99424 | 25091 ft | 425 kts | 135° |
| 2026-05-04 13:12 | 13.55977 | -59.97293 | 25092 ft | 426 kts | 135° |
| 2026-05-04 13:12 | 13.53862 | -59.95154 | 25091 ft | 426 kts | 135° |
| 2026-05-04 13:13 | 13.51746 | -59.93010 | 25091 ft | 426 kts | 135° |
| 2026-05-04 13:13 | 13.49662 | -59.90899 | 25091 ft | 426 kts | 135° |
| 2026-05-04 13:13 | 13.47550 | -59.88760 | 25091 ft | 426 kts | 135° |
| 2026-05-04 13:13 | 13.45428 | -59.86616 | 25091 ft | 426 kts | 135° |
| 2026-05-04 13:14 | 13.43314 | -59.84479 | 25091 ft | 426 kts | 135° |
| 2026-05-04 13:14 | 13.41201 | -59.82343 | 25091 ft | 426 kts | 135° |
| 2026-05-04 13:14 | 13.39092 | -59.80214 | 25090 ft | 425 kts | 135° |
| 2026-05-04 13:14 | 13.36982 | -59.78088 | 25090 ft | 425 kts | 135° |
| 2026-05-04 13:15 | 13.34884 | -59.75973 | 25260 ft | 427 kts | 135° |
| 2026-05-04 13:15 | 13.32759 | -59.73825 | 25652 ft | 430 kts | 135° |
| 2026-05-04 13:15 | 13.30611 | -59.71654 | 26017 ft | 433 kts | 135° |
| 2026-05-04 13:15 | 13.28459 | -59.69479 | 26363 ft | 436 kts | 135° |
| 2026-05-04 13:16 | 13.26288 | -59.67287 | 26700 ft | 438 kts | 135° |
| 2026-05-04 13:16 | 13.24844 | -59.65832 | 26911 ft | 440 kts | 135° |
| 2026-05-04 13:16 | 13.22641 | -59.63618 | 27232 ft | 442 kts | 135° |
| 2026-05-04 13:16 | 13.20433 | -59.61403 | 27538 ft | 445 kts | 135° |
| 2026-05-04 13:17 | 13.18239 | -59.59196 | 27839 ft | 447 kts | 135° |
| 2026-05-04 13:17 | 13.16011 | -59.56954 | 28133 ft | 449 kts | 135° |
| 2026-05-04 13:17 | 13.13775 | -59.54702 | 28410 ft | 452 kts | 135° |
| 2026-05-04 13:17 | 13.11521 | -59.52430 | 28685 ft | 454 kts | 135° |
| 2026-05-04 13:18 | 13.09273 | -59.50164 | 28951 ft | 456 kts | 135° |
| 2026-05-04 13:18 | 13.07008 | -59.47899 | 29204 ft | 458 kts | 136° |
| 2026-05-04 13:18 | 13.04657 | -59.45673 | 29464 ft | 461 kts | 138° |
| 2026-05-04 13:18 | 13.02239 | -59.43501 | 29719 ft | 463 kts | 139° |
| 2026-05-04 13:19 | 12.99786 | -59.41362 | 29968 ft | 464 kts | 140° |
| 2026-05-04 13:19 | 12.97302 | -59.39220 | 30199 ft | 466 kts | 140° |
| 2026-05-04 13:19 | 12.94810 | -59.37062 | 30422 ft | 468 kts | 140° |
| 2026-05-04 13:19 | 12.92331 | -59.34887 | 30643 ft | 470 kts | 139° |
| 2026-05-04 13:20 | 12.89882 | -59.32712 | 30859 ft | 472 kts | 139° |
| 2026-05-04 13:20 | 12.87377 | -59.30470 | 31084 ft | 474 kts | 139° |
| 2026-05-04 13:20 | 12.84927 | -59.28271 | 31272 ft | 475 kts | 139° |
| 2026-05-04 13:20 | 12.82430 | -59.26031 | 31485 ft | 476 kts | 139° |
| 2026-05-04 13:21 | 12.79927 | -59.23794 | 31773 ft | 476 kts | 139° |
| 2026-05-04 13:21 | 12.77420 | -59.21561 | 32051 ft | 475 kts | 139° |
| 2026-05-04 13:21 | 12.74956 | -59.19371 | 32324 ft | 475 kts | 139° |
| 2026-05-04 13:21 | 12.72450 | -59.17147 | 32602 ft | 474 kts | 140° |
| 2026-05-04 13:22 | 12.69950 | -59.14932 | 32876 ft | 474 kts | 140° |
| 2026-05-04 13:22 | 12.67459 | -59.12725 | 33152 ft | 474 kts | 140° |
| 2026-05-04 13:22 | 12.64954 | -59.10504 | 33431 ft | 474 kts | 140° |
| 2026-05-04 13:22 | 12.62467 | -59.08293 | 33714 ft | 473 kts | 140° |
| 2026-05-04 13:23 | 12.59985 | -59.06083 | 33987 ft | 473 kts | 140° |
| 2026-05-04 13:23 | 12.57538 | -59.03905 | 34249 ft | 472 kts | 140° |
| 2026-05-04 13:23 | 12.55045 | -59.01689 | 34515 ft | 472 kts | 140° |
| 2026-05-04 13:23 | 12.52556 | -58.99479 | 34772 ft | 471 kts | 140° |
| 2026-05-04 13:24 | 12.50075 | -58.97279 | 35011 ft | 471 kts | 140° |
| 2026-05-04 13:24 | 12.45181 | -58.92936 | 35080 ft | 464 kts | 140° |
| 2026-05-04 13:25 | 12.37866 | -58.86455 | 35079 ft | 461 kts | 140° |
| 2026-05-04 13:25 | 12.33041 | -58.82181 | 35079 ft | 462 kts | 140° |
| 2026-05-04 13:26 | 12.28185 | -58.77881 | 35083 ft | 461 kts | 140° |
| 2026-05-04 13:26 | 12.23314 | -58.73568 | 35085 ft | 461 kts | 140° |
| 2026-05-04 13:27 | 12.18481 | -58.69293 | 35085 ft | 461 kts | 140° |
| 2026-05-04 13:27 | 12.13620 | -58.64992 | 35080 ft | 461 kts | 140° |
| 2026-05-04 13:28 | 12.08784 | -58.60726 | 35083 ft | 462 kts | 140° |
| 2026-05-04 13:28 | 12.03907 | -58.56429 | 35075 ft | 462 kts | 140° |
| 2026-05-04 13:29 | 11.99042 | -58.52132 | 35076 ft | 462 kts | 140° |
| 2026-05-04 13:29 | 11.94205 | -58.47855 | 35074 ft | 462 kts | 140° |
| 2026-05-04 13:30 | 11.89341 | -58.43556 | 35076 ft | 461 kts | 140° |
| 2026-05-04 13:30 | 11.84496 | -58.39291 | 35068 ft | 461 kts | 140° |
| 2026-05-04 13:31 | 11.79626 | -58.35008 | 35077 ft | 462 kts | 140° |
| 2026-05-04 13:31 | 11.74752 | -58.30722 | 35082 ft | 462 kts | 140° |
| 2026-05-04 13:32 | 11.69876 | -58.26432 | 35079 ft | 462 kts | 140° |
| 2026-05-04 13:32 | 11.65009 | -58.22136 | 35078 ft | 462 kts | 140° |
| 2026-05-04 13:33 | 11.60166 | -58.17873 | 35077 ft | 462 kts | 140° |
| 2026-05-04 13:33 | 11.55284 | -58.13579 | 35085 ft | 462 kts | 140° |
| 2026-05-04 13:34 | 11.50434 | -58.09330 | 35076 ft | 462 kts | 140° |
| 2026-05-04 13:34 | 11.45553 | -58.05051 | 35076 ft | 462 kts | 140° |
| 2026-05-04 13:35 | 11.38268 | -57.98660 | 35080 ft | 462 kts | 140° |
| 2026-05-04 13:36 | 11.33376 | -57.94383 | 35081 ft | 462 kts | 140° |
| 2026-05-04 13:36 | 11.28493 | -57.90098 | 35078 ft | 462 kts | 140° |
| 2026-05-04 13:37 | 11.23655 | -57.85851 | 35073 ft | 462 kts | 140° |
| 2026-05-04 13:37 | 11.18778 | -57.81574 | 35071 ft | 462 kts | 140° |
| 2026-05-04 13:38 | 11.13886 | -57.77290 | 35072 ft | 463 kts | 141° |
| 2026-05-04 13:38 | 11.08994 | -57.73016 | 35078 ft | 463 kts | 141° |
| 2026-05-04 13:39 | 11.04148 | -57.68772 | 35082 ft | 463 kts | 141° |
| 2026-05-04 13:39 | 10.99260 | -57.64495 | 35075 ft | 463 kts | 141° |
| 2026-05-04 13:40 | 10.94370 | -57.60224 | 35071 ft | 463 kts | 141° |
| 2026-05-04 13:40 | 10.89483 | -57.55956 | 35068 ft | 462 kts | 141° |
| 2026-05-04 13:41 | 10.84628 | -57.51723 | 35057 ft | 462 kts | 141° |
| 2026-05-04 13:41 | 10.79722 | -57.47442 | 35058 ft | 462 kts | 141° |
| 2026-05-04 13:42 | 10.72396 | -57.41058 | 35052 ft | 462 kts | 141° |
| 2026-05-04 13:42 | 10.67543 | -57.36827 | 35056 ft | 462 kts | 141° |
| 2026-05-04 13:43 | 10.62654 | -57.32567 | 35056 ft | 462 kts | 141° |
| 2026-05-04 13:43 | 10.57787 | -57.28323 | 35050 ft | 463 kts | 141° |
| 2026-05-04 13:44 | 10.52896 | -57.24062 | 35046 ft | 462 kts | 141° |
| 2026-05-04 13:44 | 10.47993 | -57.19802 | 35047 ft | 463 kts | 141° |
| 2026-05-04 13:45 | 10.43097 | -57.15550 | 35049 ft | 463 kts | 141° |
| 2026-05-04 13:45 | 10.38219 | -57.11311 | 35054 ft | 463 kts | 141° |
| 2026-05-04 13:46 | 10.33310 | -57.07044 | 35056 ft | 463 kts | 141° |
| 2026-05-04 13:46 | 10.28427 | -57.02804 | 35058 ft | 463 kts | 141° |
| 2026-05-04 13:47 | 10.23525 | -56.98544 | 35059 ft | 464 kts | 141° |
| 2026-05-04 13:47 | 10.18616 | -56.94279 | 35060 ft | 464 kts | 141° |
| 2026-05-04 13:48 | 10.13703 | -56.90017 | 35057 ft | 464 kts | 141° |
| 2026-05-04 13:48 | 10.08821 | -56.85780 | 35055 ft | 464 kts | 141° |
| 2026-05-04 13:49 | 10.03898 | -56.81517 | 35057 ft | 465 kts | 141° |
| 2026-05-04 13:49 | 9.98978 | -56.77256 | 35058 ft | 464 kts | 141° |
| 2026-05-04 13:50 | 9.94086 | -56.73019 | 35060 ft | 464 kts | 141° |
| 2026-05-04 13:50 | 9.89166 | -56.68762 | 35059 ft | 463 kts | 141° |
| 2026-05-04 13:51 | 9.84287 | -56.64543 | 35055 ft | 463 kts | 141° |
| 2026-05-04 13:51 | 9.79383 | -56.60297 | 35051 ft | 463 kts | 141° |
| 2026-05-04 13:52 | 9.72058 | -56.53964 | 35046 ft | 463 kts | 141° |
| 2026-05-04 13:53 | 9.67140 | -56.49716 | 35048 ft | 463 kts | 141° |
| 2026-05-04 13:53 | 9.62235 | -56.45472 | 35046 ft | 463 kts | 141° |
| 2026-05-04 13:54 | 9.54904 | -56.39147 | 35048 ft | 463 kts | 141° |
| 2026-05-04 13:55 | 9.47529 | -56.32790 | 35053 ft | 463 kts | 141° |
| 2026-05-04 13:55 | 9.40183 | -56.26460 | 35048 ft | 463 kts | 141° |
| 2026-05-04 13:56 | 9.35281 | -56.22224 | 35050 ft | 462 kts | 141° |
| 2026-05-04 13:57 | 9.27945 | -56.15907 | 35046 ft | 462 kts | 141° |
| 2026-05-04 13:58 | 9.18171 | -56.07490 | 35044 ft | 462 kts | 141° |
| 2026-05-04 13:58 | 9.10822 | -56.01167 | 35047 ft | 461 kts | 141° |
| 2026-05-04 13:59 | 9.05782 | -55.97221 | 35048 ft | 460 kts | 147° |
| 2026-05-04 14:00 | 8.97915 | -55.91660 | 35049 ft | 459 kts | 147° |
| 2026-05-04 14:00 | 8.90073 | -55.86113 | 35055 ft | 459 kts | 147° |
| 2026-05-04 14:01 | 8.84824 | -55.82400 | 35053 ft | 458 kts | 147° |
| 2026-05-04 14:02 | 8.77000 | -55.76873 | 35053 ft | 458 kts | 147° |
| 2026-05-04 14:02 | 8.71766 | -55.73169 | 35050 ft | 458 kts | 147° |
| 2026-05-04 14:03 | 8.66573 | -55.69495 | 35048 ft | 457 kts | 147° |
| 2026-05-04 14:03 | 8.62245 | -55.66429 | 35045 ft | 456 kts | 147° |
| 2026-05-04 14:04 | 8.54424 | -55.60912 | 35041 ft | 456 kts | 147° |
| 2026-05-04 14:04 | 8.49242 | -55.57256 | 35037 ft | 456 kts | 147° |
| 2026-05-04 14:05 | 8.41430 | -55.51752 | 35041 ft | 456 kts | 147° |
| 2026-05-04 14:06 | 8.36258 | -55.48095 | 35042 ft | 456 kts | 147° |
| 2026-05-04 14:06 | 8.31045 | -55.44413 | 35040 ft | 456 kts | 147° |
| 2026-05-04 14:07 | 8.25863 | -55.40760 | 35041 ft | 456 kts | 147° |
| 2026-05-04 14:07 | 8.20653 | -55.37088 | 35041 ft | 456 kts | 147° |
| 2026-05-04 14:08 | 8.15474 | -55.33435 | 35039 ft | 455 kts | 147° |
| 2026-05-04 14:08 | 8.10278 | -55.29776 | 35036 ft | 455 kts | 147° |
| 2026-05-04 14:09 | 8.02505 | -55.24307 | 35033 ft | 455 kts | 147° |
| 2026-05-04 14:10 | 7.94695 | -55.18809 | 35034 ft | 455 kts | 147° |
| 2026-05-04 14:10 | 7.89505 | -55.15158 | 35039 ft | 454 kts | 147° |
| 2026-05-04 14:11 | 7.84349 | -55.11532 | 35040 ft | 454 kts | 147° |
| 2026-05-04 14:11 | 7.76560 | -55.06067 | 35041 ft | 454 kts | 147° |
| 2026-05-04 14:12 | 7.71401 | -55.02450 | 35040 ft | 454 kts | 147° |
| 2026-05-04 14:13 | 7.63622 | -54.96983 | 35038 ft | 454 kts | 147° |
| 2026-05-04 14:13 | 7.58439 | -54.93340 | 35037 ft | 454 kts | 147° |
| 2026-05-04 14:14 | 7.53291 | -54.89726 | 35033 ft | 454 kts | 147° |
| 2026-05-04 14:14 | 7.45524 | -54.84273 | 35031 ft | 454 kts | 147° |
| 2026-05-04 14:15 | 7.35188 | -54.77029 | 35030 ft | 453 kts | 147° |
| 2026-05-04 14:16 | 7.27406 | -54.71572 | 35030 ft | 453 kts | 147° |
| 2026-05-04 14:17 | 7.19652 | -54.66135 | 35030 ft | 453 kts | 147° |
| 2026-05-04 14:18 | 7.11874 | -54.60687 | 35030 ft | 453 kts | 146° |
| 2026-05-04 14:19 | 7.01566 | -54.53470 | 35031 ft | 453 kts | 147° |
| 2026-05-04 14:19 | 6.96387 | -54.49847 | 35032 ft | 453 kts | 147° |
| 2026-05-04 14:20 | 6.91202 | -54.46219 | 35034 ft | 452 kts | 146° |
| 2026-05-04 14:20 | 6.86061 | -54.42625 | 35033 ft | 452 kts | 146° |
| 2026-05-04 14:21 | 6.78301 | -54.37201 | 35032 ft | 452 kts | 146° |
| 2026-05-04 14:21 | 6.73153 | -54.33611 | 35039 ft | 452 kts | 146° |
| 2026-05-04 14:22 | 6.67956 | -54.29982 | 35042 ft | 452 kts | 146° |
| 2026-05-04 14:22 | 6.62817 | -54.26384 | 35040 ft | 452 kts | 146° |
| 2026-05-04 14:23 | 6.55091 | -54.20993 | 35041 ft | 451 kts | 146° |
| 2026-05-04 14:24 | 6.49918 | -54.17387 | 35041 ft | 451 kts | 146° |
| 2026-05-04 14:24 | 6.44759 | -54.13789 | 35041 ft | 451 kts | 146° |
| 2026-05-04 14:25 | 6.39628 | -54.10205 | 35041 ft | 451 kts | 146° |
| 2026-05-04 14:25 | 6.31914 | -54.04832 | 35043 ft | 451 kts | 146° |
| 2026-05-04 14:26 | 6.26747 | -54.01234 | 35043 ft | 450 kts | 146° |
| 2026-05-04 14:26 | 6.21663 | -53.97587 | 35044 ft | 451 kts | 144° |
| 2026-05-04 14:27 | 6.16705 | -53.93737 | 35042 ft | 451 kts | 143° |
| 2026-05-04 14:27 | 6.11760 | -53.89852 | 35040 ft | 450 kts | 143° |
| 2026-05-04 14:28 | 6.06780 | -53.86018 | 35040 ft | 450 kts | 144° |
| 2026-05-04 14:28 | 6.01783 | -53.82210 | 35042 ft | 450 kts | 144° |
| 2026-05-04 14:29 | 5.91844 | -53.74600 | 34935 ft | 451 kts | 143° |
| 2026-05-04 14:30 | 5.89339 | -53.72680 | 34367 ft | 450 kts | 143° |
| 2026-05-04 14:30 | 5.86854 | -53.70779 | 33808 ft | 447 kts | 143° |
| 2026-05-04 14:30 | 5.81963 | -53.67042 | 32695 ft | 440 kts | 143° |
| 2026-05-04 14:31 | 5.79527 | -53.65186 | 32152 ft | 438 kts | 144° |
| 2026-05-04 14:31 | 5.74705 | -53.61501 | 31072 ft | 432 kts | 143° |
| 2026-05-04 14:32 | 5.69985 | -53.57878 | 30022 ft | 425 kts | 143° |
| 2026-05-04 14:32 | 5.67640 | -53.56081 | 29505 ft | 422 kts | 143° |
| 2026-05-04 14:32 | 5.65313 | -53.54300 | 29002 ft | 418 kts | 143° |
| 2026-05-04 14:32 | 5.63027 | -53.52552 | 28506 ft | 415 kts | 143° |
| 2026-05-04 14:33 | 5.60735 | -53.50804 | 28035 ft | 412 kts | 143° |
| 2026-05-04 14:33 | 5.58456 | -53.49065 | 27570 ft | 408 kts | 143° |
| 2026-05-04 14:33 | 5.56208 | -53.47349 | 27102 ft | 405 kts | 143° |
| 2026-05-04 14:33 | 5.53967 | -53.45639 | 26643 ft | 402 kts | 143° |
| 2026-05-04 14:34 | 5.51769 | -53.43960 | 26191 ft | 399 kts | 143° |
| 2026-05-04 14:34 | 5.49535 | -53.42254 | 25706 ft | 396 kts | 143° |
| 2026-05-04 14:34 | 5.47374 | -53.40604 | 25241 ft | 394 kts | 143° |
| 2026-05-04 14:34 | 5.45200 | -53.38942 | 24772 ft | 391 kts | 143° |
| 2026-05-04 14:35 | 5.43039 | -53.37286 | 24265 ft | 389 kts | 143° |
| 2026-05-04 14:35 | 5.40891 | -53.35643 | 23769 ft | 386 kts | 142° |
| 2026-05-04 14:35 | 5.38828 | -53.33905 | 22965 ft | 392 kts | 132° |
| 2026-05-04 14:35 | 5.37068 | -53.31839 | 22174 ft | 398 kts | 129° |
| 2026-05-04 14:36 | 5.35304 | -53.29715 | 21718 ft | 394 kts | 129° |
| 2026-05-04 14:36 | 5.33557 | -53.27604 | 21319 ft | 389 kts | 129° |
| 2026-05-04 14:36 | 5.31833 | -53.25519 | 20885 ft | 385 kts | 129° |
| 2026-05-04 14:36 | 5.30140 | -53.23476 | 20380 ft | 383 kts | 129° |
| 2026-05-04 14:37 | 5.28423 | -53.21410 | 19909 ft | 380 kts | 129° |
| 2026-05-04 14:37 | 5.26735 | -53.19381 | 19450 ft | 377 kts | 129° |
| 2026-05-04 14:37 | 5.25082 | -53.17396 | 19024 ft | 374 kts | 128° |
| 2026-05-04 14:37 | 5.23418 | -53.15393 | 18565 ft | 368 kts | 128° |
| 2026-05-04 14:38 | 5.21786 | -53.13433 | 17840 ft | 362 kts | 128° |
| 2026-05-04 14:38 | 5.20200 | -53.11531 | 17383 ft | 347 kts | 128° |
| 2026-05-04 14:38 | 5.18699 | -53.09732 | 16958 ft | 334 kts | 128° |
| 2026-05-04 14:38 | 5.17234 | -53.07978 | 16563 ft | 321 kts | 128° |
| 2026-05-04 14:39 | 5.15822 | -53.06286 | 16171 ft | 309 kts | 128° |
| 2026-05-04 14:39 | 5.14450 | -53.04639 | 15803 ft | 305 kts | 128° |
| 2026-05-04 14:39 | 5.13096 | -53.03007 | 15432 ft | 305 kts | 128° |
| 2026-05-04 14:40 | 5.10385 | -52.99741 | 14686 ft | 305 kts | 128° |
| 2026-05-04 14:40 | 5.09023 | -52.98103 | 14308 ft | 306 kts | 128° |
| 2026-05-04 14:40 | 5.07658 | -52.96461 | 13939 ft | 306 kts | 128° |
| 2026-05-04 14:40 | 5.06298 | -52.94829 | 13555 ft | 305 kts | 128° |
| 2026-05-04 14:41 | 5.04934 | -52.93195 | 13175 ft | 305 kts | 128° |
| 2026-05-04 14:41 | 5.03587 | -52.91580 | 12797 ft | 304 kts | 128° |
| 2026-05-04 14:41 | 5.00884 | -52.88338 | 12030 ft | 301 kts | 128° |
| 2026-05-04 14:42 | 4.98194 | -52.85107 | 11247 ft | 300 kts | 128° |
| 2026-05-04 14:42 | 4.96857 | -52.83503 | 10858 ft | 299 kts | 128° |
| 2026-05-04 14:42 | 4.95537 | -52.81921 | 10459 ft | 298 kts | 128° |
| 2026-05-04 14:43 | 4.94213 | -52.80334 | 10080 ft | 296 kts | 129° |
| 2026-05-04 14:43 | 4.92898 | -52.78758 | 9700 ft | 293 kts | 129° |
| 2026-05-04 14:43 | 4.91579 | -52.77177 | 9316 ft | 292 kts | 129° |
| 2026-05-04 14:43 | 4.90271 | -52.75609 | 8876 ft | 292 kts | 129° |
| 2026-05-04 14:44 | 4.88995 | -52.74075 | 8535 ft | 288 kts | 128° |
| 2026-05-04 14:44 | 4.87719 | -52.72543 | 8222 ft | 283 kts | 129° |
| 2026-05-04 14:44 | 4.86461 | -52.71037 | 7842 ft | 280 kts | 128° |
| 2026-05-04 14:44 | 4.85208 | -52.69536 | 7454 ft | 278 kts | 128° |
| 2026-05-04 14:45 | 4.83986 | -52.68069 | 7038 ft | 277 kts | 128° |
| 2026-05-04 14:45 | 4.82747 | -52.66570 | 6569 ft | 278 kts | 128° |
| 2026-05-04 14:45 | 4.81517 | -52.65072 | 6126 ft | 277 kts | 128° |
| 2026-05-04 14:45 | 4.80300 | -52.63579 | 5740 ft | 274 kts | 128° |
| 2026-05-04 14:46 | 4.79079 | -52.62132 | 5460 ft | 268 kts | 130° |
| 2026-05-04 14:46 | 4.77826 | -52.60795 | 5260 ft | 258 kts | 133° |
| 2026-05-04 14:46 | 4.76595 | -52.59562 | 5064 ft | 249 kts | 134° |
| 2026-05-04 14:46 | 4.75387 | -52.58357 | 4791 ft | 243 kts | 132° |
| 2026-05-04 14:47 | 4.74255 | -52.57111 | 4458 ft | 237 kts | 129° |
| 2026-05-04 14:47 | 4.73313 | -52.55826 | 4228 ft | 215 kts | 111° |
| 2026-05-04 14:47 | 4.73248 | -52.54493 | 4293 ft | 186 kts | 65° |
| 2026-05-04 14:47 | 4.73981 | -52.53535 | 4301 ft | 167 kts | 49° |
| 2026-05-04 14:48 | 4.74595 | -52.52506 | 4024 ft | 179 kts | 70° |
| 2026-05-04 14:48 | 4.74996 | -52.51314 | 3745 ft | 182 kts | 72° |
| 2026-05-04 14:48 | 4.75387 | -52.50072 | 3218 ft | 195 kts | 72° |
| 2026-05-04 14:48 | 4.75801 | -52.48768 | 2511 ft | 197 kts | 73° |
| 2026-05-04 14:49 | 4.76358 | -52.47583 | 2253 ft | 176 kts | 53° |
| 2026-05-04 14:49 | 4.77118 | -52.46668 | 2091 ft | 171 kts | 51° |
| 2026-05-04 14:49 | 4.77690 | -52.45810 | 1835 ft | 171 kts | 63° |
| 2026-05-04 14:49 | 4.78166 | -52.44762 | 1669 ft | 161 kts | 66° |
| 2026-05-04 14:50 | 4.78606 | -52.43746 | 1455 ft | 157 kts | 66° |
| 2026-05-04 14:50 | 4.79033 | -52.42756 | 1215 ft | 153 kts | 66° |
| 2026-05-04 14:50 | 4.79457 | -52.41804 | 1058 ft | 149 kts | 66° |
| 2026-05-04 14:50 | 4.79872 | -52.40850 | 888 ft | 150 kts | 68° |
| 2026-05-04 14:51 | 4.80292 | -52.39879 | 683 ft | 151 kts | 66° |
| 2026-05-04 14:51 | 4.80714 | -52.38921 | 471 ft | 150 kts | 66° |
| 2026-05-04 14:51 | 4.81153 | -52.37965 | 226 ft | 154 kts | 65° |
| 2026-05-04 14:51 | 4.81597 | -52.36999 | 33 ft | 145 kts | 65° |
| 2026-05-04 14:52 | 4.81957 | -52.36209 | 29 ft | 94 kts | 66° |
| 2026-05-04 14:52 | 4.82087 | -52.35945 | 29 ft | 12 kts | 16° |
| 2026-05-04 14:52 | 4.82134 | -52.35988 | 29 ft | 8 kts | 307° |
| 2026-05-04 14:52 | 4.82166 | -52.36031 | 29 ft | 7 kts | 306° |
| 2026-05-04 14:53 | 4.82191 | -52.36068 | 29 ft | 5 kts | 296° |
| 2026-05-04 14:53 | 4.82191 | -52.36099 | 29 ft | 5 kts | 248° |
| 2026-05-04 14:53 | 4.82178 | -52.36132 | 29 ft | 5 kts | 246° |
| 2026-05-04 14:53 | 4.82165 | -52.36159 | 29 ft | 4 kts | 244° |
| 2026-05-04 14:54 | 4.82154 | -52.36182 | 29 ft | 3 kts | 244° |
| 2026-05-04 14:54 | 4.82144 | -52.36201 | 29 ft | 3 kts | 243° |
| 2026-05-04 14:54 | 4.82126 | -52.36237 | 29 ft | 6 kts | 243° |
| 2026-05-04 14:54 | 4.82106 | -52.36272 | 29 ft | 5 kts | 241° |
| 2026-05-04 14:55 | 4.82091 | -52.36304 | 29 ft | 5 kts | 251° |
| 2026-05-04 14:55 | 4.82091 | -52.36324 | 29 ft | 4 kts | 275° |
| 2026-05-04 14:55 | 4.82106 | -52.36343 | 29 ft | 3 kts | 322° |
| 2026-05-04 14:55 | 4.82123 | -52.36353 | 29 ft | 2 kts | 334° |
| 2026-05-04 14:56 | 4.82140 | -52.36361 | 29 ft | 2 kts | 335° |
| 2026-05-04 14:56 | 4.82147 | -52.36364 | 29 ft | 1 kts | 335° |
| 2026-05-04 14:56 | 4.82153 | -52.36367 | 29 ft | 0 kts | 334° |